sensor_id;sensor_type;location;lat;lon;timestamp;P1;durP1;ratioP1;P2;durP2;ratioP2
62151;SDS011;48139;47.474;19.034;2023-04-03T03:41:29;7.18;;;3.37;;
62151;SDS011;48139;47.474;19.034;2023-04-03T03:44:32;8.55;;;3.87;;
62151;SDS011;48139;47.474;19.034;2023-04-03T03:47:35;9.07;;;3.75;;
62151;SDS011;48139;47.474;19.034;2023-04-03T03:50:38;7.20;;;3.67;;
62151;SDS011;48139;47.474;19.034;2023-04-03T03:53:40;7.37;;;3.60;;
62151;SDS011;48139;47.474;19.034;2023-04-03T03:56:43;6.70;;;3.65;;
62151;SDS011;48139;47.474;19.034;2023-04-03T03:59:46;6.25;;;3.35;;
62151;SDS011;48139;47.474;19.034;2023-04-03T04:02:51;6.93;;;3.50;;
62151;SDS011;48139;47.474;19.034;2023-04-03T04:05:58;7.25;;;3.83;;
62151;SDS011;48139;47.474;19.034;2023-04-03T04:09:01;6.32;;;3.50;;
62151;SDS011;48139;47.474;19.034;2023-04-03T04:12:05;5.05;;;2.95;;
62151;SDS011;48139;47.474;19.034;2023-04-03T04:15:09;6.82;;;3.50;;
62151;SDS011;48139;47.474;19.034;2023-04-03T04:18:13;9.07;;;3.95;;
62151;SDS011;48139;47.474;19.034;2023-04-03T04:21:15;6.90;;;3.75;;
62151;SDS011;48139;47.474;19.034;2023-04-03T04:24:19;4.53;;;2.72;;
62151;SDS011;48139;47.474;19.034;2023-04-03T04:27:24;6.22;;;3.70;;
62151;SDS011;48139;47.474;19.034;2023-04-03T04:30:27;7.47;;;3.62;;
62151;SDS011;48139;47.474;19.034;2023-04-03T04:33:30;8.27;;;4.20;;
62151;SDS011;48139;47.474;19.034;2023-04-03T04:36:35;7.85;;;3.72;;
62151;SDS011;48139;47.474;19.034;2023-04-03T04:39:38;6.73;;;3.60;;
62151;SDS011;48139;47.474;19.034;2023-04-03T04:45:44;10.05;;;4.15;;
62151;SDS011;48139;47.474;19.034;2023-04-03T04:48:47;7.43;;;3.37;;
62151;SDS011;48139;47.474;19.034;2023-04-03T04:51:51;6.35;;;3.45;;
62151;SDS011;48139;47.474;19.034;2023-04-03T04:54:55;10.85;;;4.15;;
62151;SDS011;48139;47.474;19.034;2023-04-03T04:57:57;8.23;;;4.18;;
62151;SDS011;48139;47.474;19.034;2023-04-03T05:01:01;8.02;;;3.62;;
62151;SDS011;48139;47.474;19.034;2023-04-03T05:04:13;7.18;;;3.45;;
62151;SDS011;48139;47.474;19.034;2023-04-03T05:10:20;10.15;;;3.50;;
62151;SDS011;48139;47.474;19.034;2023-04-03T05:13:23;6.47;;;3.92;;
62151;SDS011;48139;47.474;19.034;2023-04-03T05:16:26;5.37;;;2.87;;
62151;SDS011;48139;47.474;19.034;2023-04-03T05:19:30;7.10;;;3.72;;
62151;SDS011;48139;47.474;19.034;2023-04-03T05:22:33;12.48;;;5.35;;
62151;SDS011;48139;47.474;19.034;2023-04-03T05:25:37;7.85;;;4.10;;
62151;SDS011;48139;47.474;19.034;2023-04-03T05:28:41;4.68;;;2.62;;
62151;SDS011;48139;47.474;19.034;2023-04-03T05:31:44;6.68;;;3.22;;
62151;SDS011;48139;47.474;19.034;2023-04-03T05:34:47;6.40;;;3.62;;
62151;SDS011;48139;47.474;19.034;2023-04-03T05:37:50;9.43;;;3.83;;
62151;SDS011;48139;47.474;19.034;2023-04-03T05:40:53;7.47;;;3.50;;
62151;SDS011;48139;47.474;19.034;2023-04-03T05:43:56;6.13;;;2.70;;
62151;SDS011;48139;47.474;19.034;2023-04-03T05:46:58;6.53;;;3.40;;
62151;SDS011;48139;47.474;19.034;2023-04-03T05:50:02;6.43;;;3.70;;
62151;SDS011;48139;47.474;19.034;2023-04-03T05:53:05;7.03;;;3.08;;
62151;SDS011;48139;47.474;19.034;2023-04-03T05:56:08;7.05;;;3.58;;
62151;SDS011;48139;47.474;19.034;2023-04-03T05:59:12;6.35;;;3.65;;
62151;SDS011;48139;47.474;19.034;2023-04-03T06:02:21;6.23;;;2.87;;
62151;SDS011;48139;47.474;19.034;2023-04-03T06:05:25;6.53;;;3.42;;
62151;SDS011;48139;47.474;19.034;2023-04-03T06:08:27;5.65;;;3.12;;
62151;SDS011;48139;47.474;19.034;2023-04-03T06:11:32;7.30;;;3.72;;
62151;SDS011;48139;47.474;19.034;2023-04-03T06:14:34;8.23;;;3.20;;
62151;SDS011;48139;47.474;19.034;2023-04-03T06:17:38;4.55;;;2.30;;
62151;SDS011;48139;47.474;19.034;2023-04-03T06:20:41;7.10;;;3.03;;
62151;SDS011;48139;47.474;19.034;2023-04-03T06:23:44;5.65;;;2.95;;
62151;SDS011;48139;47.474;19.034;2023-04-03T06:26:47;8.77;;;3.65;;
62151;SDS011;48139;47.474;19.034;2023-04-03T06:29:49;7.13;;;3.03;;
62151;SDS011;48139;47.474;19.034;2023-04-03T06:32:52;6.07;;;2.67;;
62151;SDS011;48139;47.474;19.034;2023-04-03T06:35:55;7.30;;;3.30;;
62151;SDS011;48139;47.474;19.034;2023-04-03T06:39:02;6.53;;;2.55;;
62151;SDS011;48139;47.474;19.034;2023-04-03T06:42:05;5.03;;;2.37;;
62151;SDS011;48139;47.474;19.034;2023-04-03T06:45:09;6.75;;;2.70;;
62151;SDS011;48139;47.474;19.034;2023-04-03T06:48:13;5.70;;;3.33;;
62151;SDS011;48139;47.474;19.034;2023-04-03T06:54:22;7.75;;;2.62;;
62151;SDS011;48139;47.474;19.034;2023-04-03T06:57:25;10.45;;;2.75;;
62151;SDS011;48139;47.474;19.034;2023-04-03T07:00:29;6.00;;;2.80;;
62151;SDS011;48139;47.474;19.034;2023-04-03T07:03:32;9.18;;;3.47;;
62151;SDS011;48139;47.474;19.034;2023-04-03T07:06:36;4.82;;;2.33;;
62151;SDS011;48139;47.474;19.034;2023-04-03T07:09:39;4.62;;;2.62;;
62151;SDS011;48139;47.474;19.034;2023-04-03T07:12:43;6.12;;;2.22;;
62151;SDS011;48139;47.474;19.034;2023-04-03T07:15:46;7.13;;;2.53;;
62151;SDS011;48139;47.474;19.034;2023-04-03T07:18:49;6.00;;;2.70;;
62151;SDS011;48139;47.474;19.034;2023-04-03T07:21:52;4.95;;;2.62;;
62151;SDS011;48139;47.474;19.034;2023-04-03T07:24:54;7.22;;;2.20;;
62151;SDS011;48139;47.474;19.034;2023-04-03T07:27:57;6.00;;;2.55;;
62151;SDS011;48139;47.474;19.034;2023-04-03T07:31:04;7.60;;;2.15;;
62151;SDS011;48139;47.474;19.034;2023-04-03T07:34:15;5.05;;;2.15;;
62151;SDS011;48139;47.474;19.034;2023-04-03T07:37:18;4.60;;;1.95;;
62151;SDS011;48139;47.474;19.034;2023-04-03T07:40:20;4.35;;;1.80;;
62151;SDS011;48139;47.474;19.034;2023-04-03T07:43:23;2.97;;;1.80;;
62151;SDS011;48139;47.474;19.034;2023-04-03T07:46:27;6.37;;;2.12;;
62151;SDS011;48139;47.474;19.034;2023-04-03T07:49:30;3.78;;;1.62;;
62151;SDS011;48139;47.474;19.034;2023-04-03T07:52:33;4.95;;;2.33;;
62151;SDS011;48139;47.474;19.034;2023-04-03T07:55:36;4.67;;;2.23;;
62151;SDS011;48139;47.474;19.034;2023-04-03T07:58:44;5.43;;;2.28;;
62151;SDS011;48139;47.474;19.034;2023-04-03T08:01:47;4.60;;;2.25;;
62151;SDS011;48139;47.474;19.034;2023-04-03T08:04:50;5.03;;;2.20;;
62151;SDS011;48139;47.474;19.034;2023-04-03T08:07:53;5.62;;;2.10;;
62151;SDS011;48139;47.474;19.034;2023-04-03T08:10:57;4.10;;;1.92;;
62151;SDS011;48139;47.474;19.034;2023-04-03T08:14:00;4.35;;;2.10;;
62151;SDS011;48139;47.474;19.034;2023-04-03T08:17:03;6.30;;;2.10;;
62151;SDS011;48139;47.474;19.034;2023-04-03T08:20:07;4.50;;;2.08;;
62151;SDS011;48139;47.474;19.034;2023-04-03T08:23:10;4.70;;;2.28;;
62151;SDS011;48139;47.474;19.034;2023-04-03T08:26:15;4.33;;;2.07;;
62151;SDS011;48139;47.474;19.034;2023-04-03T08:29:19;4.20;;;2.33;;
62151;SDS011;48139;47.474;19.034;2023-04-03T08:35:25;5.10;;;2.12;;
62151;SDS011;48139;47.474;19.034;2023-04-03T08:38:28;4.97;;;2.20;;
62151;SDS011;48139;47.474;19.034;2023-04-03T08:41:38;5.00;;;2.00;;
62151;SDS011;48139;47.474;19.034;2023-04-03T08:44:48;5.12;;;2.42;;
62151;SDS011;48139;47.474;19.034;2023-04-03T08:48:07;6.90;;;1.83;;
62151;SDS011;48139;47.474;19.034;2023-04-03T08:51:20;4.10;;;2.15;;
62151;SDS011;48139;47.474;19.034;2023-04-03T08:54:33;4.05;;;1.90;;
62151;SDS011;48139;47.474;19.034;2023-04-03T08:57:40;4.72;;;2.37;;
62151;SDS011;48139;47.474;19.034;2023-04-03T09:03:54;3.85;;;2.05;;
62151;SDS011;48139;47.474;19.034;2023-04-03T09:07:02;2.47;;;1.17;;
62151;SDS011;48139;47.474;19.034;2023-04-03T09:10:12;3.30;;;1.45;;
62151;SDS011;48139;47.474;19.034;2023-04-03T09:16:48;3.33;;;1.17;;
62151;SDS011;48139;47.474;19.034;2023-04-03T09:26:39;3.45;;;1.40;;
62151;SDS011;48139;47.474;19.034;2023-04-03T09:29:46;3.17;;;1.48;;
62151;SDS011;48139;47.474;19.034;2023-04-03T09:32:53;4.87;;;1.48;;
62151;SDS011;48139;47.474;19.034;2023-04-03T09:35:57;3.80;;;1.42;;
62151;SDS011;48139;47.474;19.034;2023-04-03T09:39:04;6.55;;;1.45;;
62151;SDS011;48139;47.474;19.034;2023-04-03T09:42:19;1.75;;;1.05;;
62151;SDS011;48139;47.474;19.034;2023-04-03T09:45:26;5.97;;;1.67;;
62151;SDS011;48139;47.474;19.034;2023-04-03T09:48:33;2.42;;;1.30;;
62151;SDS011;48139;47.474;19.034;2023-04-03T09:51:37;3.70;;;1.95;;
62151;SDS011;48139;47.474;19.034;2023-04-03T09:54:40;3.95;;;1.80;;
62151;SDS011;48139;47.474;19.034;2023-04-03T09:57:44;3.22;;;1.48;;
62151;SDS011;48139;47.474;19.034;2023-04-03T10:00:53;3.28;;;1.27;;
62151;SDS011;48139;47.474;19.034;2023-04-03T10:04:12;1.15;;;1.02;;
62151;SDS011;48139;47.474;19.034;2023-04-03T10:07:29;2.45;;;1.30;;
62151;SDS011;48139;47.474;19.034;2023-04-03T10:10:37;4.90;;;1.83;;
62151;SDS011;48139;47.474;19.034;2023-04-03T10:13:50;3.53;;;1.50;;
62151;SDS011;48139;47.474;19.034;2023-04-03T10:23:54;2.33;;;1.33;;
62151;SDS011;48139;47.474;19.034;2023-04-03T10:34:04;2.37;;;1.08;;
62151;SDS011;48139;47.474;19.034;2023-04-03T10:37:14;3.00;;;1.52;;
62151;SDS011;48139;47.474;19.034;2023-04-03T10:47:02;3.03;;;1.58;;
62151;SDS011;48139;47.474;19.034;2023-04-03T10:57:03;2.53;;;1.40;;
62151;SDS011;48139;47.474;19.034;2023-04-03T11:03:48;3.45;;;1.27;;
62151;SDS011;48139;47.474;19.034;2023-04-03T11:07:08;3.15;;;1.20;;
62151;SDS011;48139;47.474;19.034;2023-04-03T11:13:50;2.08;;;1.02;;
62151;SDS011;48139;47.474;19.034;2023-04-03T11:20:21;4.05;;;1.62;;
62151;SDS011;48139;47.474;19.034;2023-04-03T11:23:37;2.92;;;1.77;;
62151;SDS011;48139;47.474;19.034;2023-04-03T11:26:50;5.03;;;1.30;;
62151;SDS011;48139;47.474;19.034;2023-04-03T11:29:56;3.72;;;1.30;;
62151;SDS011;48139;47.474;19.034;2023-04-03T11:33:11;2.35;;;1.45;;
62151;SDS011;48139;47.474;19.034;2023-04-03T11:39:56;3.20;;;1.40;;
62151;SDS011;48139;47.474;19.034;2023-04-03T11:43:16;3.67;;;1.25;;
62151;SDS011;48139;47.474;19.034;2023-04-03T11:46:40;2.15;;;1.05;;
62151;SDS011;48139;47.474;19.034;2023-04-03T11:50:00;3.95;;;1.25;;
62151;SDS011;48139;47.474;19.034;2023-04-03T11:59:34;2.22;;;1.12;;
62151;SDS011;48139;47.474;19.034;2023-04-03T12:02:39;3.00;;;1.20;;
62151;SDS011;48139;47.474;19.034;2023-04-03T12:18:43;1.90;;;1.10;;
62151;SDS011;48139;47.474;19.034;2023-04-03T12:25:00;1.33;;;0.90;;
62151;SDS011;48139;47.474;19.034;2023-04-03T12:28:41;2.08;;;1.00;;
62151;SDS011;48139;47.474;19.034;2023-04-03T12:31:48;3.50;;;0.93;;
62151;SDS011;48139;47.474;19.034;2023-04-03T12:38:50;4.35;;;1.40;;
62151;SDS011;48139;47.474;19.034;2023-04-03T12:49:14;1.12;;;0.80;;
62151;SDS011;48139;47.474;19.034;2023-04-03T12:52:42;1.98;;;1.00;;
62151;SDS011;48139;47.474;19.034;2023-04-03T12:55:48;2.20;;;1.10;;
62151;SDS011;48139;47.474;19.034;2023-04-03T12:59:12;3.05;;;1.92;;
62151;SDS011;48139;47.474;19.034;2023-04-03T13:02:23;3.92;;;1.40;;
62151;SDS011;48139;47.474;19.034;2023-04-03T13:05:27;3.33;;;1.23;;
62151;SDS011;48139;47.474;19.034;2023-04-03T13:08:30;3.62;;;1.20;;
62151;SDS011;48139;47.474;19.034;2023-04-03T13:14:38;2.25;;;1.10;;
62151;SDS011;48139;47.474;19.034;2023-04-03T13:17:41;3.00;;;1.23;;
62151;SDS011;48139;47.474;19.034;2023-04-03T13:23:51;2.05;;;1.10;;
62151;SDS011;48139;47.474;19.034;2023-04-03T13:27:15;3.65;;;1.10;;
62151;SDS011;48139;47.474;19.034;2023-04-03T13:33:33;4.20;;;1.65;;
62151;SDS011;48139;47.474;19.034;2023-04-03T13:36:41;1.52;;;0.88;;
62151;SDS011;48139;47.474;19.034;2023-04-03T13:39:56;5.07;;;1.52;;
62151;SDS011;48139;47.474;19.034;2023-04-03T13:43:03;2.15;;;1.05;;
62151;SDS011;48139;47.474;19.034;2023-04-03T13:53:00;3.25;;;1.30;;
62151;SDS011;48139;47.474;19.034;2023-04-03T13:56:07;2.92;;;1.20;;
62151;SDS011;48139;47.474;19.034;2023-04-03T14:02:38;4.47;;;1.17;;
62151;SDS011;48139;47.474;19.034;2023-04-03T14:05:41;2.75;;;1.10;;
62151;SDS011;48139;47.474;19.034;2023-04-03T14:08:45;2.08;;;1.02;;
62151;SDS011;48139;47.474;19.034;2023-04-03T14:11:49;3.10;;;1.30;;
62151;SDS011;48139;47.474;19.034;2023-04-03T14:14:54;1.40;;;0.80;;
62151;SDS011;48139;47.474;19.034;2023-04-03T14:17:58;3.37;;;1.23;;
62151;SDS011;48139;47.474;19.034;2023-04-03T14:21:04;1.83;;;1.40;;
62151;SDS011;48139;47.474;19.034;2023-04-03T14:24:06;3.55;;;1.70;;
62151;SDS011;48139;47.474;19.034;2023-04-03T14:27:24;2.33;;;0.88;;
62151;SDS011;48139;47.474;19.034;2023-04-03T14:30:37;2.00;;;1.10;;
62151;SDS011;48139;47.474;19.034;2023-04-03T14:33:40;2.67;;;1.20;;
62151;SDS011;48139;47.474;19.034;2023-04-03T14:36:43;4.37;;;1.27;;
62151;SDS011;48139;47.474;19.034;2023-04-03T14:39:47;2.12;;;1.10;;
62151;SDS011;48139;47.474;19.034;2023-04-03T14:45:53;3.22;;;1.05;;
62151;SDS011;48139;47.474;19.034;2023-04-03T14:48:56;2.35;;;1.30;;
62151;SDS011;48139;47.474;19.034;2023-04-03T14:51:58;3.33;;;1.35;;
62151;SDS011;48139;47.474;19.034;2023-04-03T14:55:02;2.75;;;0.90;;
62151;SDS011;48139;47.474;19.034;2023-04-03T14:58:09;3.20;;;1.20;;
62151;SDS011;48139;47.474;19.034;2023-04-03T15:01:16;3.58;;;1.30;;
62151;SDS011;48139;47.474;19.034;2023-04-03T15:04:20;3.15;;;1.45;;
62151;SDS011;48139;47.474;19.034;2023-04-03T15:07:23;4.65;;;1.50;;
62151;SDS011;48139;47.474;19.034;2023-04-03T15:10:29;1.92;;;1.05;;
62151;SDS011;48139;47.474;19.034;2023-04-03T15:13:33;2.95;;;1.10;;
62151;SDS011;48139;47.474;19.034;2023-04-03T15:29:39;3.87;;;1.75;;
62151;SDS011;48139;47.474;19.034;2023-04-03T15:32:43;4.43;;;2.45;;
62151;SDS011;48139;47.474;19.034;2023-04-03T15:35:46;4.28;;;2.03;;
62151;SDS011;48139;47.474;19.034;2023-04-03T15:38:50;4.05;;;1.80;;
62151;SDS011;48139;47.474;19.034;2023-04-03T15:41:53;2.78;;;1.52;;
62151;SDS011;48139;47.474;19.034;2023-04-03T15:44:56;3.50;;;1.80;;
62151;SDS011;48139;47.474;19.034;2023-04-03T15:47:59;3.60;;;1.70;;
